Terminal Aerodrome Forecast
Issued by NWS Buffalo, NY

Current Version | Previous Version | Text Only | Print | Product List | Glossary On
Versions: 1 2 3 4 5 6 7 8 9 10 11 12 13 14 15 16 17 18 19 20 21 22 23 24 25 26 27 28 29 30 31
000
FTUS41 KBUF 011136
TAFROC
TAF
KROC 011136Z 0112/0212 23009KT P6SM -SHRA VCTS BKN045CB
     FM011500 25010KT 6SM BR VCSH OVC040
     FM011800 26013G19KT P6SM VCTS OVC025CB
     FM012100 27014G20KT P6SM BKN035
     FM020200 27006KT P6SM SCT070
     FM020700 VRB03KT P6SM BKN250=

USA.gov is the U.S. government's official web portal to all federal, state and local government web resources and services.